createdAt,value
2018-12-02T00:00:12.005Z,95539.41
2018-12-02T00:02:38.705Z,95536.51
2018-12-02T00:05:05.358Z,95530.30
2018-12-02T00:07:31.998Z,95538.14
2018-12-02T00:09:58.708Z,95537.50
2018-12-02T00:12:25.344Z,95531.19
2018-12-02T00:14:52.004Z,95528.02
2018-12-02T00:17:18.652Z,95531.30
2018-12-02T00:19:45.289Z,95526.63
2018-12-02T00:22:11.976Z,95532.44
2018-12-02T00:24:38.637Z,95534.31
2018-12-02T00:27:05.272Z,95538.86
2018-12-02T00:29:31.931Z,95542.66
2018-12-02T00:31:58.627Z,95537.62
2018-12-02T00:34:25.272Z,95536.48
2018-12-02T00:36:52.058Z,95534.86
2018-12-02T00:39:18.688Z,95529.42
2018-12-02T00:41:45.326Z,95534.26
2018-12-02T00:44:12.018Z,95529.17
2018-12-02T00:46:38.676Z,95520.45
2018-12-02T00:49:05.369Z,95525.28
2018-12-02T00:51:32.063Z,95518.70
2018-12-02T00:53:58.802Z,95520.37
2018-12-02T00:56:25.489Z,95522.62
2018-12-02T00:58:52.125Z,95522.24
2018-12-02T01:01:18.896Z,95521.23
2018-12-02T01:03:45.544Z,95520.20
2018-12-02T01:06:12.185Z,95513.52
2018-12-02T01:08:38.830Z,95514.53
2018-12-02T01:11:05.524Z,95508.72
2018-12-02T01:13:32.234Z,95509.35
2018-12-02T01:15:58.870Z,95509.09
2018-12-02T01:18:25.515Z,95509.86
2018-12-02T01:20:52.168Z,95511.98
2018-12-02T01:23:18.807Z,95511.25
2018-12-02T01:25:45.453Z,95506.98
2018-12-02T01:28:12.106Z,95494.49
2018-12-02T01:30:38.798Z,95506.84
2018-12-02T01:33:05.499Z,95507.50
2018-12-02T01:35:32.143Z,95505.11
2018-12-02T01:37:58.790Z,95502.84
2018-12-02T01:40:25.428Z,95498.67
2018-12-02T01:42:52.120Z,95499.04
2018-12-02T01:45:18.749Z,95499.80
2018-12-02T01:47:45.455Z,95499.55
2018-12-02T01:50:12.097Z,95496.75
2018-12-02T01:52:38.732Z,95483.86
2018-12-02T01:55:05.387Z,95482.73
2018-12-02T01:57:32.028Z,95488.31
2018-12-02T01:59:58.681Z,95478.31
2018-12-02T02:02:25.326Z,95484.51
2018-12-02T02:04:52.031Z,95482.88
2018-12-02T02:07:18.729Z,95484.28
2018-12-02T02:09:45.370Z,95489.60
2018-12-02T02:12:12.013Z,95481.14
2018-12-02T02:14:38.657Z,95482.53
2018-12-02T02:17:05.301Z,95472.46
2018-12-02T02:19:31.951Z,95479.02
2018-12-02T02:21:58.604Z,95482.05
2018-12-02T02:24:25.250Z,95476.34
2018-12-02T02:26:51.947Z,95473.45
2018-12-02T02:29:18.642Z,95475.72
2018-12-02T02:31:45.351Z,95470.92
2018-12-02T02:34:11.984Z,95450.13
2018-12-02T02:36:38.664Z,95467.75
2018-12-02T02:39:05.368Z,95470.55
2018-12-02T02:41:32.003Z,95466.36
2018-12-02T02:43:58.686Z,95464.22
2018-12-02T02:46:25.324Z,95464.20
2018-12-02T02:48:51.977Z,95469.88
2018-12-02T02:51:18.654Z,95471.14
2018-12-02T02:53:45.293Z,95467.63
2018-12-02T02:56:11.933Z,95471.80
2018-12-02T02:58:38.571Z,95475.11
2018-12-02T03:01:05.235Z,95473.47
2018-12-02T03:03:31.880Z,95472.31
2018-12-02T03:05:58.512Z,95472.33
2018-12-02T03:08:25.164Z,95476.77
2018-12-02T03:10:51.850Z,95471.33
2018-12-02T03:13:18.495Z,95471.08
2018-12-02T03:15:45.195Z,95472.07
2018-12-02T03:18:11.902Z,95473.20
2018-12-02T03:20:38.541Z,95469.06
2018-12-02T03:23:05.201Z,95470.88
2018-12-02T03:25:31.891Z,95475.81
2018-12-02T03:27:58.530Z,95478.08
2018-12-02T03:30:25.177Z,95467.73
2018-12-02T03:32:51.826Z,95474.66
2018-12-02T03:35:18.460Z,95473.79
2018-12-02T03:37:45.155Z,95478.10
2018-12-02T03:40:11.888Z,95484.66
2018-12-02T03:42:38.416Z,95475.57
2018-12-02T03:45:05.079Z,95477.69
2018-12-02T03:47:31.731Z,95482.75
2018-12-02T03:49:58.428Z,95482.60
2018-12-02T03:52:25.074Z,95486.11
2018-12-02T03:54:51.714Z,95482.59
2018-12-02T03:57:18.373Z,95482.82
2018-12-02T03:59:45.022Z,95491.67
2018-12-02T04:02:11.717Z,95496.59
2018-12-02T04:04:38.352Z,95493.92
2018-12-02T04:07:05.078Z,95497.20
2018-12-02T04:09:31.693Z,95506.55
2018-12-02T04:11:58.391Z,95499.46
2018-12-02T04:14:25.092Z,95500.00
2018-12-02T04:16:51.789Z,95496.48
2018-12-02T04:19:18.431Z,95502.28
2018-12-02T04:21:45.158Z,95493.59
2018-12-02T04:24:11.863Z,95493.56
2018-12-02T04:26:38.559Z,95489.55
2018-12-02T04:29:05.201Z,95488.90
2018-12-02T04:31:31.847Z,95488.41
2018-12-02T04:33:58.536Z,95487.13
2018-12-02T04:36:25.182Z,95483.34
2018-12-02T04:38:51.926Z,95488.52
2018-12-02T04:41:18.562Z,95484.87
2018-12-02T04:43:45.210Z,95489.52
2018-12-02T04:46:11.846Z,95498.22
2018-12-02T04:48:38.544Z,95491.03
2018-12-02T04:51:05.185Z,95500.11
2018-12-02T04:53:31.900Z,95491.41
2018-12-02T04:55:58.544Z,95494.30
2018-12-02T04:58:25.244Z,95494.44
2018-12-02T05:00:51.892Z,95493.06
2018-12-02T05:03:18.535Z,95488.14
2018-12-02T05:05:45.197Z,95482.85
2018-12-02T05:08:11.853Z,95482.57
2018-12-02T05:10:38.491Z,95486.38
2018-12-02T05:13:05.184Z,95491.92
2018-12-02T05:15:31.900Z,95492.45
2018-12-02T05:17:58.538Z,95505.16
2018-12-02T05:20:25.172Z,95486.52
2018-12-02T05:22:51.826Z,95491.41
2018-12-02T05:25:18.761Z,95489.15
2018-12-02T05:27:45.157Z,95493.16
2018-12-02T05:30:11.907Z,95488.00
2018-12-02T05:32:38.599Z,95499.86
2018-12-02T05:35:05.248Z,95494.19
2018-12-02T05:37:31.894Z,95501.24
2018-12-02T05:39:58.551Z,95499.73
2018-12-02T05:42:25.199Z,95497.31
2018-12-02T05:44:51.837Z,95507.94
2018-12-02T05:47:18.557Z,95497.63
2018-12-02T05:49:45.197Z,95502.66
2018-12-02T05:52:11.850Z,95500.88
2018-12-02T05:54:38.527Z,95504.92
2018-12-02T05:57:05.157Z,95505.44
2018-12-02T05:59:31.801Z,95506.81
2018-12-02T06:01:58.453Z,95502.66
2018-12-02T06:04:26.204Z,95506.96
2018-12-02T06:06:52.841Z,95519.80
2018-12-02T06:09:19.557Z,95519.05
2018-12-02T06:11:46.212Z,95518.91
2018-12-02T06:14:12.849Z,95515.12
2018-12-02T06:16:39.505Z,95518.15
2018-12-02T06:19:06.145Z,95523.70
2018-12-02T06:21:32.830Z,95522.19
2018-12-02T06:23:59.483Z,95523.70
2018-12-02T06:26:26.129Z,95531.27
2018-12-02T06:28:52.765Z,95529.13
2018-12-02T06:31:19.475Z,95523.67
2018-12-02T06:33:46.114Z,95531.88
2018-12-02T06:36:12.755Z,95529.89
2018-12-02T06:38:39.402Z,95539.64
2018-12-02T06:41:06.106Z,95540.88
2018-12-02T06:43:32.800Z,95535.06
2018-12-02T06:45:59.448Z,95539.36
2018-12-02T06:48:26.136Z,95534.43
2018-12-02T06:50:52.783Z,95541.77
2018-12-02T06:53:19.475Z,95542.50
2018-12-02T06:55:46.454Z,95547.03
2018-12-02T06:58:13.110Z,95550.20
2018-12-02T07:00:39.744Z,95551.09
2018-12-02T07:03:06.389Z,95540.34
2018-12-02T07:05:33.039Z,95544.50
2018-12-02T07:07:59.701Z,95551.81
2018-12-02T07:10:26.353Z,95552.70
2018-12-02T07:12:53.001Z,95553.09
2018-12-02T07:15:19.644Z,95557.48
2018-12-02T07:17:46.337Z,95546.62
2018-12-02T07:20:12.992Z,95549.14
2018-12-02T07:22:39.749Z,95560.81
2018-12-02T07:25:06.413Z,95557.02
2018-12-02T07:27:33.053Z,95555.49
2018-12-02T07:29:59.781Z,95557.87
2018-12-02T07:32:26.384Z,95557.01
2018-12-02T07:34:53.032Z,95562.43
2018-12-02T07:37:19.677Z,95563.06
2018-12-02T07:39:46.370Z,95565.94
2018-12-02T07:42:13.020Z,95563.80
2018-12-02T07:44:39.722Z,95561.27
2018-12-02T07:47:06.367Z,95560.24
2018-12-02T07:49:33.026Z,95561.38
2018-12-02T07:51:59.777Z,95557.08
2018-12-02T07:54:26.418Z,95557.45
2018-12-02T07:56:53.117Z,95561.23
2018-12-02T07:59:19.765Z,95561.73
2018-12-02T08:01:46.459Z,95558.83
2018-12-02T08:04:13.111Z,95569.41
2018-12-02T08:06:39.801Z,95569.03
2018-12-02T08:09:06.460Z,95568.28
2018-12-02T08:11:33.110Z,95564.42
2018-12-02T08:13:59.745Z,95564.38
2018-12-02T08:16:26.389Z,95564.13
2018-12-02T08:18:53.038Z,95563.98
2018-12-02T08:21:19.689Z,95566.88
2018-12-02T08:23:46.334Z,95566.48
2018-12-02T08:26:13.028Z,95574.70
2018-12-02T08:28:39.666Z,95570.36
2018-12-02T08:31:06.314Z,95562.39
2018-12-02T08:33:32.964Z,95560.58
2018-12-02T08:35:59.602Z,95563.36
2018-12-02T08:38:26.306Z,95561.81
2018-12-02T08:40:52.949Z,95556.36
2018-12-02T08:43:19.591Z,95559.51
2018-12-02T08:45:46.240Z,95561.34
2018-12-02T08:48:12.891Z,95559.04
2018-12-02T08:50:39.581Z,95560.53
2018-12-02T08:53:06.272Z,95563.59
2018-12-02T08:55:32.921Z,95563.15
2018-12-02T08:57:59.575Z,95557.22
2018-12-02T09:00:26.268Z,95555.30
2018-12-02T09:02:52.907Z,95548.97
2018-12-02T09:05:19.558Z,95551.38
2018-12-02T09:07:46.197Z,95544.43
2018-12-02T09:10:12.851Z,95544.16
2018-12-02T09:12:39.547Z,95538.81
2018-12-02T09:15:06.184Z,95532.24
2018-12-02T09:17:34.762Z,95532.37
2018-12-02T09:19:59.486Z,95527.51
2018-12-02T09:22:26.188Z,95532.95
2018-12-02T09:24:52.881Z,95529.89
2018-12-02T09:27:19.549Z,95524.48
2018-12-02T09:29:46.204Z,95527.61
2018-12-02T09:32:12.884Z,95520.57
2018-12-02T09:34:39.546Z,95514.81
2018-12-02T09:37:06.189Z,95515.54
2018-12-02T09:39:32.893Z,95511.87
2018-12-02T09:41:59.538Z,95511.75
2018-12-02T09:44:29.099Z,95515.26
2018-12-02T09:46:55.821Z,95510.83
2018-12-02T09:49:25.757Z,95510.33
2018-12-02T09:51:52.405Z,95504.09
2018-12-02T09:54:23.338Z,95509.16
2018-12-02T09:56:45.693Z,95510.42
2018-12-02T09:59:12.387Z,95487.63
2018-12-02T10:01:39.035Z,95499.00
2018-12-02T10:04:05.725Z,95499.10
2018-12-02T10:06:32.423Z,95500.37
2018-12-02T10:08:59.060Z,95494.36
2018-12-02T10:11:25.754Z,95498.02
2018-12-02T10:13:52.398Z,95495.28
2018-12-02T10:16:19.048Z,95493.50
2018-12-02T10:18:45.690Z,95490.72
2018-12-02T10:21:12.391Z,95467.26
2018-12-02T10:23:39.023Z,95482.94
2018-12-02T10:26:05.752Z,95485.21
2018-12-02T10:28:32.414Z,95479.90
2018-12-02T10:30:59.059Z,95473.64
2018-12-02T10:33:25.758Z,95471.55
2018-12-02T10:35:52.454Z,95464.88
2018-12-02T10:38:19.091Z,95465.92
2018-12-02T10:40:45.739Z,95462.89
2018-12-02T10:43:12.431Z,95438.58
2018-12-02T10:45:39.193Z,95450.37
2018-12-02T10:48:05.843Z,95444.55
2018-12-02T10:50:32.500Z,95441.01
2018-12-02T10:52:59.137Z,95448.09
2018-12-02T10:55:25.827Z,95445.47
2018-12-02T10:57:52.466Z,95443.19
2018-12-02T11:00:19.163Z,95441.13
2018-12-02T11:02:45.804Z,95440.91
2018-12-02T11:05:12.442Z,95440.38
2018-12-02T11:07:39.101Z,95437.63
2018-12-02T11:10:05.800Z,95437.21
2018-12-02T11:12:32.448Z,95435.52
2018-12-02T11:14:59.092Z,95427.25
2018-12-02T11:17:25.738Z,95425.86
2018-12-02T11:19:52.420Z,95426.62
2018-12-02T11:22:19.058Z,95423.67
2018-12-02T11:24:45.712Z,95418.02
2018-12-02T11:27:12.371Z,95416.38
2018-12-02T11:29:39.056Z,95414.09
2018-12-02T11:32:05.686Z,95409.67
2018-12-02T11:34:32.330Z,95410.02
2018-12-02T11:36:58.985Z,95407.52
2018-12-02T11:39:25.633Z,95404.16
2018-12-02T11:41:52.316Z,95406.76
2018-12-02T11:44:18.950Z,95412.52
2018-12-02T11:46:45.596Z,95411.45
2018-12-02T11:49:12.236Z,95407.64
2018-12-02T11:51:38.875Z,95405.17
2018-12-02T11:54:05.566Z,95403.03
2018-12-02T11:56:32.217Z,95406.31
2018-12-02T11:58:58.929Z,95396.92
2018-12-02T12:01:25.568Z,95392.65
2018-12-02T12:03:52.201Z,95388.63
2018-12-02T12:06:18.899Z,95387.83
2018-12-02T12:08:46.586Z,95386.56
2018-12-02T12:11:13.318Z,95384.25
2018-12-02T12:13:39.935Z,95376.02
2018-12-02T12:16:06.623Z,95371.12
2018-12-02T12:18:33.310Z,95373.74
2018-12-02T12:20:59.956Z,95367.67
2018-12-02T12:23:26.595Z,95366.58
2018-12-02T12:25:53.278Z,95367.37
2018-12-02T12:28:19.921Z,95362.66
2018-12-02T12:30:46.579Z,95353.93
2018-12-02T12:33:13.214Z,95352.70
2018-12-02T12:35:39.859Z,95347.52
2018-12-02T12:38:06.496Z,95346.13
2018-12-02T12:40:33.201Z,95348.56
2018-12-02T12:42:59.842Z,95343.47
2018-12-02T12:45:29.355Z,95340.09
2018-12-02T12:47:56.049Z,95338.92
2018-12-02T12:50:22.690Z,95338.92
2018-12-02T12:52:49.384Z,95340.30
2018-12-02T12:55:16.079Z,95339.80
2018-12-02T12:57:42.767Z,95343.09
2018-12-02T13:00:09.406Z,95341.79
2018-12-02T13:02:36.094Z,95332.17
2018-12-02T13:05:02.744Z,95335.50
2018-12-02T13:07:29.436Z,95340.56
2018-12-02T13:09:56.129Z,95337.52
2018-12-02T13:12:22.779Z,95338.03
2018-12-02T13:14:49.432Z,95339.80
2018-12-02T13:17:16.140Z,95347.73
2018-12-02T13:19:42.780Z,95341.33
2018-12-02T13:22:09.483Z,95341.53
2018-12-02T13:24:36.120Z,95341.83
2018-12-02T13:27:02.752Z,95339.63
2018-12-02T13:29:29.568Z,95335.66
2018-12-02T13:31:56.206Z,95333.56
2018-12-02T13:34:22.852Z,95333.44
2018-12-02T13:36:49.484Z,95333.44
2018-12-02T13:39:16.187Z,95331.33
2018-12-02T13:41:42.888Z,95333.34
2018-12-02T13:44:09.533Z,95337.10
2018-12-02T13:46:36.189Z,95341.95
2018-12-02T13:49:02.873Z,95329.27
2018-12-02T13:51:29.566Z,95339.92
2018-12-02T13:53:56.219Z,95339.17
2018-12-02T13:56:23.177Z,95343.22
2018-12-02T13:58:49.635Z,95339.05
2018-12-02T14:01:16.279Z,95336.89
2018-12-02T14:03:42.927Z,95333.02
2018-12-02T14:06:09.574Z,95336.33
2018-12-02T14:08:36.282Z,95334.66
2018-12-02T14:11:02.926Z,95331.91
2018-12-02T14:13:29.574Z,95338.99
2018-12-02T14:15:57.280Z,95329.03
2018-12-02T14:18:23.927Z,95329.63
2018-12-02T14:20:50.568Z,95336.67
2018-12-02T14:23:17.231Z,95332.88
2018-12-02T14:25:43.926Z,95337.17
2018-12-02T14:28:10.573Z,95322.08
2018-12-02T14:30:37.244Z,95335.81
2018-12-02T14:33:03.968Z,95333.92
2018-12-02T14:35:30.603Z,95327.67
2018-12-02T14:37:57.241Z,95325.11
2018-12-02T14:40:23.907Z,95330.71
2018-12-02T14:42:50.622Z,95325.75
2018-12-02T14:45:17.254Z,95328.94
2018-12-02T14:47:43.898Z,95330.49
2018-12-02T14:50:10.559Z,95325.56
2018-12-02T14:52:37.208Z,95322.41
2018-12-02T14:55:03.847Z,95327.72
2018-12-02T14:57:30.531Z,95325.12
2018-12-02T14:59:57.169Z,95325.09
2018-12-02T15:02:23.792Z,95325.98
2018-12-02T15:04:50.445Z,95325.66
2018-12-02T15:07:17.097Z,95328.89
2018-12-02T15:09:43.748Z,95329.52
2018-12-02T15:12:10.396Z,95329.52
2018-12-02T15:14:37.041Z,95326.37
2018-12-02T15:17:03.698Z,95330.45
2018-12-02T15:19:30.371Z,95328.55
2018-12-02T15:21:57.026Z,95324.88
2018-12-02T15:24:23.700Z,95323.75
2018-12-02T15:26:50.347Z,95330.73
2018-12-02T15:29:16.990Z,95330.86
2018-12-02T15:31:43.628Z,95330.70
2018-12-02T15:34:10.281Z,95337.08
2018-12-02T15:36:36.917Z,95343.28
2018-12-02T15:39:03.573Z,95338.60
2018-12-02T15:41:30.316Z,95339.65
2018-12-02T15:43:56.948Z,95332.57
2018-12-02T15:46:23.591Z,95335.64
2018-12-02T15:48:50.238Z,95338.77
2018-12-02T15:51:16.905Z,95339.43
2018-12-02T15:53:43.550Z,95337.47
2018-12-02T15:56:10.190Z,95336.84
2018-12-02T15:58:36.844Z,95339.23
2018-12-02T16:01:03.480Z,95342.11
2018-12-02T16:03:30.138Z,95343.09
2018-12-02T16:05:56.806Z,95336.30
2018-12-02T16:08:23.458Z,95343.28
2018-12-02T16:10:50.102Z,95343.03
2018-12-02T16:13:16.738Z,95343.84
2018-12-02T16:15:43.419Z,95347.23
2018-12-02T16:18:10.077Z,95348.94
2018-12-02T16:20:36.748Z,95346.31
2018-12-02T16:23:03.393Z,95345.52
2018-12-02T16:25:30.041Z,95355.00
2018-12-02T16:27:56.693Z,95345.69
2018-12-02T16:30:23.343Z,95350.73
2018-12-02T16:32:49.990Z,95357.25
2018-12-02T16:35:16.632Z,95354.41
2018-12-02T16:37:43.285Z,95363.78
2018-12-02T16:40:09.924Z,95356.11
2018-12-02T16:42:36.583Z,95365.94
2018-12-02T16:45:03.281Z,95363.34
2018-12-02T16:47:29.923Z,95368.88
2018-12-02T16:49:56.555Z,95372.28
2018-12-02T16:52:23.211Z,95371.66
2018-12-02T16:54:49.870Z,95370.55
2018-12-02T16:57:16.531Z,95372.25
2018-12-02T16:59:43.173Z,95365.36
2018-12-02T17:02:09.818Z,95365.33
2018-12-02T17:04:36.467Z,95374.66
2018-12-02T17:07:03.107Z,95374.59
2018-12-02T17:09:29.766Z,95379.48
2018-12-02T17:11:56.428Z,95387.09
2018-12-02T17:14:23.083Z,95378.61
2018-12-02T17:16:49.737Z,95380.34
2018-12-02T17:19:16.393Z,95376.20
2018-12-02T17:21:43.025Z,95373.42
2018-12-02T17:24:09.722Z,95374.56
2018-12-02T17:26:36.369Z,95370.04
2018-12-02T17:29:03.039Z,95377.44
2018-12-02T17:31:29.690Z,95382.23
2018-12-02T17:33:56.365Z,95381.48
2018-12-02T17:36:23.021Z,95374.81
2018-12-02T17:38:49.668Z,95380.59
2018-12-02T17:41:16.328Z,95378.86
2018-12-02T17:43:42.974Z,95375.47
2018-12-02T17:46:09.640Z,95382.02
2018-12-02T17:48:36.295Z,95385.17
2018-12-02T17:51:02.953Z,95390.33
2018-12-02T17:53:29.611Z,95382.67
2018-12-02T17:55:56.263Z,95387.48
2018-12-02T17:58:22.936Z,95385.68
2018-12-02T18:00:49.571Z,95383.53
2018-12-02T18:03:16.212Z,95378.50
2018-12-02T18:05:42.879Z,95375.22
2018-12-02T18:08:09.538Z,95372.70
2018-12-02T18:10:36.199Z,95378.88
2018-12-02T18:13:02.848Z,95371.02
2018-12-02T18:15:29.657Z,95360.41
2018-12-02T18:17:56.295Z,95350.23
2018-12-02T18:20:22.952Z,95357.50
2018-12-02T18:22:49.619Z,95362.80
2018-12-02T18:25:16.265Z,95352.89
2018-12-02T18:27:42.958Z,95354.69
2018-12-02T18:30:09.661Z,95356.30
2018-12-02T18:32:36.318Z,95346.98
2018-12-02T18:35:02.983Z,95348.72
2018-12-02T18:37:29.797Z,95344.92
2018-12-02T18:39:56.548Z,95347.20
2018-12-02T18:42:23.196Z,95346.28
2018-12-02T18:44:49.923Z,95350.61
2018-12-02T18:47:16.557Z,95356.83
2018-12-02T18:49:43.228Z,95353.39
2018-12-02T18:52:09.878Z,95350.86
2018-12-02T18:54:36.525Z,95361.63
2018-12-02T18:57:03.170Z,95369.19
2018-12-02T18:59:29.813Z,95368.42
2018-12-02T19:01:56.480Z,95371.48
2018-12-02T19:04:23.118Z,95367.67
2018-12-02T19:06:49.785Z,95373.26
2018-12-02T19:09:16.448Z,95377.89
2018-12-02T19:11:43.123Z,95370.77
2018-12-02T19:14:09.838Z,95370.21
2018-12-02T19:16:36.577Z,95370.56
2018-12-02T19:19:03.231Z,95375.77
2018-12-02T19:21:29.873Z,95375.02
2018-12-02T19:23:56.573Z,95373.52
2018-12-02T19:26:23.231Z,95376.02
2018-12-02T19:28:49.895Z,95370.59
2018-12-02T19:31:16.533Z,95374.45
2018-12-02T19:33:43.181Z,95374.45
2018-12-02T19:36:09.828Z,95375.97
2018-12-02T19:38:36.642Z,95366.94
2018-12-02T19:41:03.293Z,95371.52
2018-12-02T19:43:29.990Z,95370.00
2018-12-02T19:45:56.641Z,95359.83
2018-12-02T19:48:23.289Z,95356.19
2018-12-02T19:50:49.937Z,95351.17
2018-12-02T19:53:16.666Z,95342.52
2018-12-02T19:55:43.315Z,95331.04
2018-12-02T19:58:09.957Z,95322.59
2018-12-02T20:00:36.614Z,95320.81
2018-12-02T20:03:03.252Z,95334.05
2018-12-02T20:05:29.908Z,95342.16
2018-12-02T20:07:56.560Z,95337.44
2018-12-02T20:10:23.210Z,95344.20
2018-12-02T20:12:49.868Z,95335.39
2018-12-02T20:15:16.518Z,95331.59
2018-12-02T20:17:43.161Z,95341.30
2018-12-02T20:20:09.910Z,95334.22
2018-12-02T20:22:36.559Z,95332.05
2018-12-02T20:25:03.252Z,95338.27
2018-12-02T20:27:29.907Z,95336.34
2018-12-02T20:29:56.562Z,95332.81
2018-12-02T20:32:23.196Z,95342.16
2018-12-02T20:34:49.840Z,95345.56
2018-12-02T20:37:16.483Z,95346.47
2018-12-02T20:39:43.133Z,95347.45
2018-12-02T20:42:09.791Z,95343.70
2018-12-02T20:44:36.442Z,95352.11
2018-12-02T20:47:03.078Z,95359.10
2018-12-02T20:49:29.740Z,95350.03
2018-12-02T20:51:56.382Z,95346.67
2018-12-02T20:54:23.033Z,95353.34
2018-12-02T20:56:49.683Z,95354.11
2018-12-02T20:59:16.343Z,95350.82
2018-12-02T21:01:42.987Z,95355.09
2018-12-02T21:04:09.641Z,95351.45
2018-12-02T21:06:36.321Z,95352.97
2018-12-02T21:09:02.982Z,95353.45
2018-12-02T21:11:29.621Z,95352.51
2018-12-02T21:13:56.269Z,95349.94
2018-12-02T21:16:22.958Z,95347.89
2018-12-02T21:18:49.601Z,95357.05
2018-12-02T21:21:16.331Z,95355.69
2018-12-02T21:23:43.029Z,95354.45
2018-12-02T21:26:09.675Z,95364.56
2018-12-02T21:28:36.325Z,95356.52
2018-12-02T21:31:02.963Z,95353.13
2018-12-02T21:33:29.618Z,95354.73
2018-12-02T21:35:56.273Z,95353.50
2018-12-02T21:38:22.924Z,95362.33
2018-12-02T21:40:49.569Z,95363.34
2018-12-02T21:43:16.209Z,95361.45
2018-12-02T21:45:42.846Z,95369.16
2018-12-02T21:48:09.492Z,95368.27
2018-12-02T21:50:36.138Z,95360.39
2018-12-02T21:53:02.813Z,95355.87
2018-12-02T21:55:29.441Z,95357.99
2018-12-02T21:57:56.090Z,95357.87
2018-12-02T22:00:22.736Z,95361.91
2018-12-02T22:02:49.386Z,95357.48
2018-12-02T22:05:16.027Z,95354.84
2018-12-02T22:07:42.673Z,95352.05
2018-12-02T22:10:09.384Z,95347.63
2018-12-02T22:12:36.069Z,95339.88
2018-12-02T22:15:02.673Z,95337.48
2018-12-02T22:17:29.381Z,95339.70
2018-12-02T22:19:56.042Z,95335.23
2018-12-02T22:22:22.678Z,95338.52
2018-12-02T22:24:49.319Z,95339.62
2018-12-02T22:27:16.089Z,95341.90
2018-12-02T22:29:42.730Z,95336.95
2018-12-02T22:32:09.368Z,95335.19
2018-12-02T22:34:36.014Z,95338.59
2018-12-02T22:37:02.675Z,95344.75
2018-12-02T22:39:29.315Z,95336.83
2018-12-02T22:41:56.053Z,95337.97
2018-12-02T22:44:22.689Z,95339.33
2018-12-02T22:46:49.339Z,95340.21
2018-12-02T22:49:15.995Z,95342.73
2018-12-02T22:51:42.703Z,95338.06
2018-12-02T22:54:09.385Z,95343.37
2018-12-02T22:56:35.996Z,95346.21
2018-12-02T22:59:02.699Z,95346.23
2018-12-02T23:01:29.342Z,95348.13
2018-12-02T23:03:55.985Z,95344.80
2018-12-02T23:06:22.634Z,95343.23
2018-12-02T23:08:49.323Z,95346.56
2018-12-02T23:11:15.970Z,95341.31
2018-12-02T23:13:42.679Z,95335.89
2018-12-02T23:16:09.317Z,95332.20
2018-12-02T23:18:35.963Z,95333.44
2018-12-02T23:21:02.614Z,95334.47
2018-12-02T23:23:29.264Z,95340.43
2018-12-02T23:25:55.968Z,95328.79
2018-12-02T23:28:22.614Z,95330.91
2018-12-02T23:30:49.265Z,95323.11
2018-12-02T23:33:15.912Z,95326.63
2018-12-02T23:35:42.557Z,95326.98
2018-12-02T23:38:09.258Z,95321.20
2018-12-02T23:40:35.903Z,95320.41
2018-12-02T23:43:02.601Z,95325.80
2018-12-02T23:45:29.376Z,95321.37
2018-12-02T23:47:56.012Z,95316.37
2018-12-02T23:50:22.721Z,95317.41
2018-12-02T23:52:49.370Z,95316.64
2018-12-02T23:55:16.008Z,95320.51
2018-12-02T23:57:42.649Z,95316.09
